Terminal Aerodrome Forecast
Issued by NWS

Home | Current Version | Previous Version | Graphics & Text | Print | Product List | Glossary On
Versions: 1 2 3 4 5 6 7 8 9 10 11 12 13 14 15 16 17
041
FTUS43 KABR 131120
TAFMBG
TAF
KMBG 131120Z 1312/1412 32022G30KT P6SM SKC
     FM131600 32027G39KT P6SM BKN035
     FM132200 33021G29KT P6SM BKN025
     FM140000 33016G24KT P6SM BKN035
     FM140300 33011KT P6SM BKN040=

USA.gov is the U.S. government's official web portal to all federal, state and local government web resources and services.